createdAt,value
2019-05-22T00:02:28.843Z,14.40
2019-05-22T00:05:17.394Z,14.40
2019-05-22T00:07:48.807Z,14.40
2019-05-22T00:10:24.471Z,14.30
2019-05-22T00:12:55.058Z,14.30
2019-05-22T00:15:24.965Z,14.30
2019-05-22T00:17:54.273Z,14.30
2019-05-22T00:20:26.041Z,14.20
2019-05-22T00:22:58.033Z,14.20
2019-05-22T00:25:29.282Z,14.20
2019-05-22T00:27:59.759Z,14.10
2019-05-22T00:30:32.384Z,14.00
2019-05-22T00:33:02.362Z,14.00
2019-05-22T00:35:32.042Z,13.90
2019-05-22T00:38:04.690Z,14.00
2019-05-22T00:40:37.108Z,13.90
2019-05-22T00:43:13.802Z,13.90
2019-05-22T00:45:40.278Z,13.90
2019-05-22T00:48:11.727Z,13.90
2019-05-22T00:50:55.531Z,13.90
2019-05-22T00:53:47.403Z,13.80
2019-05-22T00:56:38.354Z,13.80
2019-05-22T00:59:21.022Z,13.90
2019-05-22T01:01:54.570Z,13.80
2019-05-22T01:04:25.768Z,13.80
2019-05-22T01:06:58.024Z,13.80
2019-05-22T01:09:40.074Z,13.80
2019-05-22T01:12:17.174Z,13.80
2019-05-22T01:14:47.087Z,13.70
2019-05-22T01:17:17.588Z,13.60
2019-05-22T01:19:48.791Z,13.60
2019-05-22T01:22:20.450Z,13.50
2019-05-22T01:24:53.801Z,13.40
2019-05-22T01:27:26.072Z,13.30
2019-05-22T01:29:57.326Z,13.30
2019-05-22T01:32:38.017Z,13.20
2019-05-22T01:35:10.387Z,13.20
2019-05-22T01:37:42.062Z,13.20
2019-05-22T01:40:20.498Z,13.10
2019-05-22T01:42:55.239Z,13.10
2019-05-22T01:45:25.352Z,13.10
2019-05-22T01:48:02.281Z,13.20
2019-05-22T01:50:44.441Z,13.20
2019-05-22T01:53:15.790Z,13.20
2019-05-22T01:55:45.879Z,13.30
2019-05-22T01:58:16.890Z,13.30
2019-05-22T02:00:47.841Z,13.30
2019-05-22T02:03:20.011Z,13.30
2019-05-22T02:05:49.801Z,13.30
2019-05-22T02:08:20.767Z,13.30
2019-05-22T02:10:52.680Z,13.30
2019-05-22T02:13:28.510Z,13.30
2019-05-22T02:15:58.332Z,13.30
2019-05-22T02:18:28.446Z,13.30
2019-05-22T02:20:58.061Z,13.30
2019-05-22T02:23:27.756Z,13.40
2019-05-22T02:25:57.888Z,13.40
2019-05-22T02:28:28.014Z,13.40
2019-05-22T02:30:57.636Z,13.40
2019-05-22T02:33:27.748Z,13.50
2019-05-22T02:35:58.131Z,13.60
2019-05-22T02:38:29.358Z,13.60
2019-05-22T02:40:59.182Z,13.70
2019-05-22T02:43:29.102Z,13.80
2019-05-22T02:45:58.373Z,13.90
2019-05-22T02:48:28.174Z,13.90
2019-05-22T02:50:57.169Z,13.90
2019-05-22T02:53:28.655Z,14.00
2019-05-22T02:55:58.652Z,14.00
2019-05-22T02:58:29.032Z,14.00
2019-05-22T03:01:02.753Z,14.10
2019-05-22T03:03:33.967Z,14.20
2019-05-22T03:06:06.682Z,14.20
2019-05-22T03:08:59.715Z,14.30
2019-05-22T03:11:39.731Z,14.30
2019-05-22T03:14:11.859Z,14.40
2019-05-22T03:17:00.565Z,14.40
2019-05-22T03:19:42.865Z,14.40
2019-05-22T03:22:30.958Z,14.50
2019-05-22T03:25:05.092Z,14.50
2019-05-22T03:27:40.096Z,14.50
2019-05-22T03:30:24.752Z,14.50
2019-05-22T03:32:56.301Z,14.60
2019-05-22T03:35:28.149Z,14.60
2019-05-22T03:37:59.266Z,14.60
2019-05-22T03:40:29.965Z,14.60
2019-05-22T03:43:02.144Z,14.70
2019-05-22T03:45:32.980Z,14.70
2019-05-22T03:48:05.155Z,14.70
2019-05-22T03:50:36.046Z,14.80
2019-05-22T03:53:17.852Z,14.80
2019-05-22T03:55:49.234Z,14.80
2019-05-22T03:58:19.803Z,14.90
2019-05-22T04:00:52.257Z,14.80
2019-05-22T04:03:23.800Z,14.90
2019-05-22T04:05:54.396Z,14.90
2019-05-22T04:08:26.657Z,14.90
2019-05-22T04:10:59.980Z,14.90
2019-05-22T04:13:29.682Z,15.00
2019-05-22T04:16:00.573Z,15.00
2019-05-22T04:18:31.840Z,15.00
2019-05-22T04:21:02.694Z,15.00
2019-05-22T04:23:32.648Z,15.10
2019-05-22T04:26:04.203Z,15.10
2019-05-22T04:28:36.928Z,15.10
2019-05-22T04:31:07.382Z,15.10
2019-05-22T04:33:37.203Z,15.10
2019-05-22T04:36:10.074Z,15.10
2019-05-22T04:38:37.971Z,15.10
2019-05-22T04:41:10.250Z,15.20
2019-05-22T04:43:40.116Z,15.20
2019-05-22T04:46:09.807Z,15.20
2019-05-22T04:48:40.100Z,15.20
2019-05-22T04:51:27.339Z,15.20
2019-05-22T04:53:57.596Z,15.30
2019-05-22T04:56:28.748Z,15.30
2019-05-22T04:58:59.652Z,15.30
2019-05-22T05:01:30.467Z,15.30
2019-05-22T05:04:00.762Z,15.30
2019-05-22T05:06:31.416Z,15.30
2019-05-22T05:09:01.385Z,15.40
2019-05-22T05:11:31.018Z,15.40
2019-05-22T05:14:00.735Z,15.40
2019-05-22T05:16:30.338Z,15.40
2019-05-22T05:19:00.341Z,15.40
2019-05-22T05:21:30.067Z,15.50
2019-05-22T05:23:59.805Z,15.50
2019-05-22T05:26:31.681Z,15.50
2019-05-22T05:29:02.146Z,15.50
2019-05-22T05:31:31.944Z,15.50
2019-05-22T05:34:19.543Z,15.50
2019-05-22T05:36:49.333Z,15.60
2019-05-22T05:39:29.089Z,15.60
2019-05-22T05:41:58.747Z,15.60
2019-05-22T05:44:28.468Z,15.60
2019-05-22T05:46:58.560Z,15.70
2019-05-22T05:49:29.836Z,15.70
2019-05-22T05:51:59.842Z,15.80
2019-05-22T05:54:30.469Z,15.80
2019-05-22T05:57:19.729Z,15.80
2019-05-22T05:59:49.470Z,15.90
2019-05-22T06:02:20.922Z,15.90
2019-05-22T06:04:52.203Z,16.00
2019-05-22T06:07:23.479Z,16.10
2019-05-22T06:09:56.116Z,16.20
2019-05-22T06:12:26.004Z,16.30
2019-05-22T06:14:54.780Z,16.50
2019-05-22T06:17:36.434Z,16.60
2019-05-22T06:20:17.137Z,16.60
2019-05-22T06:23:07.153Z,16.70
2019-05-22T06:25:37.504Z,16.80
2019-05-22T06:28:09.559Z,16.90
2019-05-22T06:30:42.401Z,17.00
2019-05-22T06:33:17.116Z,17.10
2019-05-22T06:35:48.532Z,17.30
2019-05-22T06:38:48.232Z,17.40
2019-05-22T06:41:20.236Z,17.50
2019-05-22T06:43:52.857Z,17.60
2019-05-22T06:46:44.879Z,17.70
2019-05-22T06:49:35.330Z,17.80
2019-05-22T06:52:07.308Z,18.00
2019-05-22T06:54:45.356Z,18.30
2019-05-22T06:57:16.843Z,18.60
2019-05-22T07:00:11.433Z,18.90
2019-05-22T07:02:26.148Z,19.20
2019-05-22T07:04:55.919Z,19.50
2019-05-22T07:07:26.642Z,19.70
2019-05-22T07:09:56.247Z,19.80
2019-05-22T07:12:50.701Z,20.00
2019-05-22T07:21:44.668Z,20.10
2019-05-22T07:24:14.199Z,20.20
2019-05-22T07:26:45.800Z,20.20
2019-05-22T07:29:16.983Z,20.30
2019-05-22T07:31:47.429Z,20.30
2019-05-22T07:34:17.774Z,20.30
2019-05-22T07:36:47.467Z,20.20
2019-05-22T07:39:16.414Z,20.10
2019-05-22T07:41:46.428Z,20.10
2019-05-22T07:44:16.008Z,20.00
2019-05-22T07:46:45.968Z,20.00
2019-05-22T07:49:15.866Z,19.90
2019-05-22T07:51:55.908Z,19.80
2019-05-22T07:54:17.710Z,19.80
2019-05-22T07:56:47.790Z,19.80
2019-05-22T07:59:17.494Z,19.90
2019-05-22T08:01:46.336Z,20.00
2019-05-22T08:04:18.174Z,20.00
2019-05-22T08:06:47.979Z,20.10
2019-05-22T08:09:20.038Z,20.40
2019-05-22T08:11:50.272Z,20.60
2019-05-22T08:14:21.343Z,20.80
2019-05-22T08:16:51.367Z,21.00
2019-05-22T08:19:21.748Z,21.10
2019-05-22T08:22:06.129Z,21.20
2019-05-22T08:24:24.037Z,21.30
2019-05-22T08:26:55.081Z,21.50
2019-05-22T08:29:25.620Z,21.50
2019-05-22T08:31:55.398Z,21.50
2019-05-22T08:34:29.058Z,21.50
2019-05-22T08:36:59.812Z,21.40
2019-05-22T08:39:29.822Z,21.50
2019-05-22T08:41:59.490Z,21.60
2019-05-22T08:44:29.209Z,21.70
2019-05-22T08:46:59.702Z,21.80
2019-05-22T08:49:30.063Z,21.80
2019-05-22T08:52:00.243Z,21.80
2019-05-22T08:54:31.679Z,21.90
2019-05-22T08:57:02.614Z,21.80
2019-05-22T08:59:33.466Z,21.90
2019-05-22T09:02:04.110Z,22.10
2019-05-22T09:04:34.959Z,22.10
2019-05-22T09:07:04.831Z,21.90
2019-05-22T09:09:34.734Z,21.90
2019-05-22T09:12:05.585Z,21.90
2019-05-22T09:14:35.364Z,22.10
2019-05-22T09:17:06.937Z,22.20
2019-05-22T09:19:36.688Z,22.40
2019-05-22T09:22:08.913Z,22.70
2019-05-22T09:24:39.150Z,22.90
2019-05-22T09:27:09.220Z,23.20
2019-05-22T09:29:38.886Z,23.40
2019-05-22T09:32:08.599Z,23.40
2019-05-22T09:34:39.292Z,23.30
2019-05-22T09:37:09.551Z,23.30
2019-05-22T09:39:39.354Z,23.30
2019-05-22T09:42:09.085Z,23.20
2019-05-22T09:44:39.207Z,22.90
2019-05-22T09:47:09.795Z,22.70
2019-05-22T09:49:40.756Z,22.50
2019-05-22T09:52:10.970Z,22.50
2019-05-22T09:54:42.293Z,22.50
2019-05-22T09:57:12.262Z,22.70
2019-05-22T09:59:42.144Z,22.90
2019-05-22T10:02:12.311Z,23.20
2019-05-22T10:04:42.115Z,23.20
2019-05-22T10:07:11.911Z,23.30
2019-05-22T10:09:41.917Z,23.30
2019-05-22T10:12:11.786Z,22.90
2019-05-22T10:14:41.976Z,22.70
2019-05-22T10:17:12.160Z,22.70
2019-05-22T10:19:42.755Z,22.90
2019-05-22T10:22:12.671Z,23.20
2019-05-22T10:24:43.545Z,23.40
2019-05-22T10:27:13.864Z,23.50
2019-05-22T10:29:43.568Z,23.50
2019-05-22T10:32:13.255Z,23.60
2019-05-22T10:34:42.963Z,23.50
2019-05-22T10:37:12.884Z,23.50
2019-05-22T10:39:42.747Z,23.70
2019-05-22T10:42:12.578Z,23.90
2019-05-22T10:44:42.308Z,24.20
2019-05-22T10:47:12.904Z,24.40
2019-05-22T10:49:42.684Z,24.50
2019-05-22T10:52:12.981Z,24.50
2019-05-22T10:54:42.628Z,24.30
2019-05-22T10:57:11.604Z,24.50
2019-05-22T10:59:41.385Z,24.80
2019-05-22T11:02:10.390Z,25.00
2019-05-22T11:04:41.237Z,25.10
2019-05-22T11:07:12.246Z,25.20
2019-05-22T11:09:42.102Z,25.10
2019-05-22T11:12:13.102Z,25.00
2019-05-22T11:14:46.644Z,25.00
2019-05-22T11:17:16.407Z,25.10
2019-05-22T11:19:46.163Z,25.30
2019-05-22T11:22:19.285Z,25.50
2019-05-22T11:24:48.920Z,25.70
2019-05-22T11:27:18.958Z,25.50
2019-05-22T11:29:49.442Z,25.20
2019-05-22T11:32:19.069Z,24.90
2019-05-22T11:34:48.127Z,24.80
2019-05-22T11:37:17.932Z,24.90
2019-05-22T11:39:47.973Z,25.10
2019-05-22T11:42:18.857Z,25.20
2019-05-22T11:44:50.111Z,25.30
2019-05-22T11:47:19.877Z,25.20
2019-05-22T11:49:49.979Z,25.20
2019-05-22T11:52:20.762Z,25.40
2019-05-22T11:54:50.481Z,25.70
2019-05-22T11:57:21.997Z,26.10
2019-05-22T11:59:51.566Z,26.40
2019-05-22T12:02:20.527Z,26.60
2019-05-22T12:04:49.972Z,26.90
2019-05-22T12:07:28.928Z,27.00
2019-05-22T12:09:58.591Z,27.10
2019-05-22T12:12:28.446Z,27.10
2019-05-22T12:14:58.321Z,27.10
2019-05-22T12:17:37.884Z,27.00
2019-05-22T12:19:59.336Z,27.00
2019-05-22T12:22:29.000Z,27.00
2019-05-22T12:24:59.525Z,27.10
2019-05-22T12:27:29.773Z,27.30
2019-05-22T12:29:59.765Z,27.40
2019-05-22T12:32:31.453Z,27.30
2019-05-22T12:35:01.629Z,27.40
2019-05-22T12:37:31.972Z,27.40
2019-05-22T12:40:03.541Z,27.40
2019-05-22T12:42:34.474Z,27.10
2019-05-22T12:45:07.384Z,27.00
2019-05-22T12:47:51.471Z,27.10
2019-05-22T12:50:21.549Z,27.10
2019-05-22T12:52:51.294Z,27.20
2019-05-22T12:55:21.615Z,27.30
2019-05-22T12:57:51.705Z,27.50
2019-05-22T13:00:24.058Z,27.70
2019-05-22T13:02:58.783Z,27.80
2019-05-22T13:08:11.552Z,28.00
2019-05-22T13:10:41.774Z,28.10
2019-05-22T13:16:14.297Z,28.70
2019-05-22T13:18:45.085Z,29.00
2019-05-22T13:21:18.529Z,29.10
2019-05-22T13:23:49.675Z,29.40
2019-05-22T13:26:19.307Z,29.50
2019-05-22T13:28:49.194Z,29.50
2019-05-22T13:31:19.521Z,29.40
2019-05-22T13:33:50.867Z,29.20
2019-05-22T13:36:21.202Z,29.20
2019-05-22T13:38:50.968Z,29.30
2019-05-22T13:41:21.031Z,29.40
2019-05-22T13:43:51.405Z,29.80
2019-05-22T13:46:21.252Z,30.40
2019-05-22T13:48:56.862Z,31.00
2019-05-22T13:51:35.990Z,31.40
2019-05-22T13:54:09.662Z,31.40
2019-05-22T13:56:40.642Z,31.20
2019-05-22T14:02:00.032Z,30.30
2019-05-22T14:04:29.803Z,29.90
2019-05-22T14:06:59.775Z,29.70
2019-05-22T14:09:30.630Z,29.70
2019-05-22T14:12:00.623Z,30.00
2019-05-22T14:14:30.416Z,30.00
2019-05-22T14:17:00.306Z,30.50
2019-05-22T14:19:33.386Z,31.60
2019-05-22T14:22:07.876Z,33.20
2019-05-22T14:27:31.664Z,37.40
2019-05-22T14:33:04.418Z,38.60
2019-05-22T14:35:46.881Z,38.40
2019-05-22T14:38:05.540Z,38.50
2019-05-22T14:40:37.506Z,37.90
2019-05-22T14:43:07.869Z,37.00
2019-05-22T14:45:38.221Z,36.50
2019-05-22T14:48:08.485Z,37.40
2019-05-22T14:50:40.044Z,39.50
2019-05-22T14:53:11.526Z,41.20
2019-05-22T14:55:42.974Z,42.10
2019-05-22T14:58:13.139Z,42.90
2019-05-22T15:01:02.836Z,43.10
2019-05-22T15:03:32.551Z,42.40
2019-05-22T15:06:02.736Z,41.40
2019-05-22T15:08:32.488Z,42.10
2019-05-22T15:11:02.569Z,42.70
2019-05-22T15:13:32.559Z,42.70
2019-05-22T15:16:02.266Z,42.10
2019-05-22T15:18:32.435Z,40.50
2019-05-22T15:21:03.868Z,38.20
2019-05-22T15:23:34.028Z,36.10
2019-05-22T15:26:04.055Z,34.50
2019-05-22T15:28:34.330Z,33.30
2019-05-22T15:31:05.097Z,33.00
2019-05-22T15:33:35.059Z,33.80
2019-05-22T15:36:06.879Z,35.40
2019-05-22T15:38:41.100Z,37.40
2019-05-22T15:41:11.585Z,37.60
2019-05-22T15:43:43.453Z,37.50
2019-05-22T15:46:15.698Z,36.50
2019-05-22T15:48:47.709Z,35.20
2019-05-22T15:51:21.394Z,34.20
2019-05-22T15:53:52.860Z,33.30
2019-05-22T15:56:23.092Z,32.50
2019-05-22T15:58:54.931Z,31.90
2019-05-22T16:01:25.614Z,31.40
2019-05-22T16:03:56.841Z,30.80
2019-05-22T16:06:28.298Z,30.40
2019-05-22T16:08:58.440Z,30.00
2019-05-22T16:11:29.939Z,29.60
2019-05-22T16:14:00.993Z,29.20
2019-05-22T16:16:32.368Z,28.80
2019-05-22T16:19:05.167Z,28.60
2019-05-22T16:21:37.323Z,28.50
2019-05-22T16:24:07.918Z,28.40
2019-05-22T16:26:38.467Z,28.30
2019-05-22T16:29:08.814Z,28.10
2019-05-22T16:31:40.146Z,28.00
2019-05-22T16:34:10.478Z,28.30
2019-05-22T16:36:53.537Z,28.50
2019-05-22T16:39:24.028Z,28.50
2019-05-22T16:44:38.925Z,27.80
2019-05-22T16:47:09.856Z,27.20
2019-05-22T16:49:41.234Z,27.00
2019-05-22T16:52:11.464Z,27.40
2019-05-22T16:54:41.870Z,28.30
2019-05-22T16:57:13.019Z,29.60
2019-05-22T16:59:42.897Z,30.50
2019-05-22T17:02:17.026Z,30.70
2019-05-22T17:04:47.526Z,30.30
2019-05-22T17:07:18.507Z,29.70
2019-05-22T17:09:49.784Z,29.00
2019-05-22T17:12:20.427Z,28.40
2019-05-22T17:14:51.308Z,27.90
2019-05-22T17:17:20.977Z,27.40
2019-05-22T17:19:50.928Z,26.90
2019-05-22T17:22:20.822Z,26.50
2019-05-22T17:24:50.891Z,26.10
2019-05-22T17:27:21.598Z,25.80
2019-05-22T17:29:52.178Z,25.50
2019-05-22T17:32:23.875Z,25.10
2019-05-22T17:34:53.779Z,24.90
2019-05-22T17:37:25.296Z,24.60
2019-05-22T17:39:55.151Z,24.40
2019-05-22T17:42:27.459Z,24.20
2019-05-22T17:44:58.693Z,24.00
2019-05-22T17:47:30.793Z,23.80
2019-05-22T17:50:03.197Z,23.50
2019-05-22T17:52:33.312Z,23.30
2019-05-22T17:55:04.862Z,23.20
2019-05-22T17:57:34.882Z,22.90
2019-05-22T18:00:14.008Z,22.70
2019-05-22T18:02:44.090Z,22.50
2019-05-22T18:05:14.944Z,22.40
2019-05-22T18:07:45.816Z,22.20
2019-05-22T18:10:15.781Z,22.00
2019-05-22T18:12:45.539Z,21.90
2019-05-22T18:15:15.849Z,21.80
2019-05-22T18:17:45.606Z,21.70
2019-05-22T18:20:16.135Z,21.50
2019-05-22T18:22:46.188Z,21.20
2019-05-22T18:25:18.744Z,20.90
2019-05-22T18:28:04.529Z,20.70
2019-05-22T18:30:47.689Z,20.60
2019-05-22T18:33:25.625Z,20.60
2019-05-22T18:35:59.507Z,20.50
2019-05-22T18:38:44.855Z,20.50
2019-05-22T18:41:15.034Z,20.40
2019-05-22T18:43:44.925Z,20.30
2019-05-22T18:46:14.786Z,20.10
2019-05-22T18:48:48.323Z,20.00
2019-05-22T18:51:18.265Z,20.00
2019-05-22T18:53:48.845Z,19.90
2019-05-22T18:56:18.743Z,19.90
2019-05-22T18:58:48.524Z,19.80
2019-05-22T19:01:17.560Z,19.80
2019-05-22T19:03:47.409Z,19.70
2019-05-22T19:06:29.662Z,19.60
2019-05-22T19:08:49.162Z,19.50
2019-05-22T19:11:19.183Z,19.50
2019-05-22T19:13:49.026Z,19.50
2019-05-22T19:16:18.714Z,19.40
2019-05-22T19:18:47.612Z,19.30
2019-05-22T19:21:17.206Z,19.30
2019-05-22T19:23:46.062Z,19.20
2019-05-22T19:26:32.272Z,19.20
2019-05-22T19:29:02.574Z,19.20
2019-05-22T19:31:45.453Z,19.10
2019-05-22T19:34:20.306Z,19.10
2019-05-22T19:36:50.060Z,19.10
2019-05-22T19:39:26.662Z,19.10
2019-05-22T19:42:05.704Z,19.00
2019-05-22T19:44:37.136Z,19.00
2019-05-22T19:47:09.745Z,19.00
2019-05-22T19:49:43.746Z,19.00
2019-05-22T19:52:14.564Z,19.00
2019-05-22T19:54:44.460Z,19.00
2019-05-22T19:57:14.890Z,18.90
2019-05-22T19:59:44.851Z,18.90
2019-05-22T20:02:16.963Z,18.90
2019-05-22T20:04:47.783Z,18.80
2019-05-22T20:07:18.243Z,18.80
2019-05-22T20:09:48.465Z,18.80
2019-05-22T20:12:18.077Z,18.70
2019-05-22T20:14:47.921Z,18.70
2019-05-22T20:17:17.834Z,18.60
2019-05-22T20:19:46.715Z,18.60
2019-05-22T20:22:21.920Z,18.50
2019-05-22T20:24:51.754Z,18.50
2019-05-22T20:27:21.821Z,18.50
2019-05-22T20:29:51.769Z,18.40
2019-05-22T20:32:22.305Z,18.40
2019-05-22T20:34:51.938Z,18.40
2019-05-22T20:37:22.487Z,18.40
2019-05-22T20:39:54.863Z,18.40
2019-05-22T20:54:56.908Z,18.40
2019-05-22T21:03:15.984Z,18.00
2019-05-22T21:05:53.240Z,18.00
2019-05-22T21:08:25.258Z,17.90
2019-05-22T21:10:59.060Z,17.80
2019-05-22T21:13:31.873Z,17.70
2019-05-22T21:16:03.230Z,17.60
2019-05-22T21:18:37.143Z,17.50
2019-05-22T21:21:08.436Z,17.40
2019-05-22T21:23:38.859Z,17.30
2019-05-22T21:26:09.960Z,17.20
2019-05-22T21:28:40.355Z,17.10
2019-05-22T21:31:10.214Z,17.00
2019-05-22T21:33:40.044Z,17.00
2019-05-22T21:36:09.772Z,17.00
2019-05-22T21:38:39.939Z,17.00
2019-05-22T21:41:10.163Z,17.10
2019-05-22T21:43:40.110Z,17.20
2019-05-22T21:46:10.216Z,17.30
2019-05-22T21:48:40.002Z,17.40
2019-05-22T21:51:08.942Z,17.50
2019-05-22T21:53:38.554Z,17.60
2019-05-22T21:56:08.987Z,17.60
2019-05-22T21:58:39.072Z,17.60
2019-05-22T22:01:12.588Z,17.60
2019-05-22T22:03:54.562Z,17.70
2019-05-22T22:06:24.619Z,17.70
2019-05-22T22:08:54.254Z,17.70
2019-05-22T22:11:25.952Z,17.70
2019-05-22T22:13:56.122Z,17.80
2019-05-22T22:16:25.822Z,17.80
2019-05-22T22:18:55.026Z,17.80
2019-05-22T22:21:25.527Z,17.80
2019-05-22T22:23:55.375Z,17.80
2019-05-22T22:26:26.459Z,17.70
2019-05-22T22:28:56.275Z,17.70
2019-05-22T22:31:27.561Z,17.70
2019-05-22T22:34:00.449Z,17.70
2019-05-22T22:36:30.222Z,17.70
2019-05-22T22:38:59.891Z,17.80
2019-05-22T22:41:29.520Z,17.80
2019-05-22T22:43:59.307Z,17.80
2019-05-22T22:46:39.919Z,17.70
2019-05-22T22:49:13.454Z,17.70
2019-05-22T22:51:45.803Z,17.60
2019-05-22T22:54:15.474Z,17.50
2019-05-22T22:56:45.639Z,17.40
2019-05-22T22:59:15.910Z,17.30
2019-05-22T23:01:48.603Z,17.20
2019-05-22T23:04:20.067Z,17.10
2019-05-22T23:06:50.103Z,17.00
2019-05-22T23:09:19.741Z,16.90
2019-05-22T23:11:49.960Z,16.90
2019-05-22T23:14:23.018Z,16.90
2019-05-22T23:16:53.339Z,16.90
2019-05-22T23:19:38.285Z,16.90
2019-05-22T23:22:08.444Z,16.90
2019-05-22T23:24:40.344Z,16.90
2019-05-22T23:27:10.807Z,16.80
2019-05-22T23:29:42.386Z,16.80
2019-05-22T23:32:14.312Z,16.70
2019-05-22T23:34:44.848Z,16.60
2019-05-22T23:37:15.148Z,16.50
2019-05-22T23:39:46.404Z,16.40
2019-05-22T23:42:19.229Z,16.30
2019-05-22T23:44:50.750Z,16.30
2019-05-22T23:47:20.456Z,16.20
2019-05-22T23:49:50.750Z,16.20
2019-05-22T23:52:20.738Z,16.10
2019-05-22T23:54:51.589Z,16.00
2019-05-22T23:57:22.768Z,15.90
2019-05-22T23:59:54.374Z,15.80
